Time;durP1;ratioP1;P1;durP2;ratioP2;P2;SDS_P1;SDS_P2;PMS_P1;PMS_P2;Temp;Humidity;BMP_temperature;BMP_pressure;BME280_temperature;BME280_humidity;BME280_pressure;Samples;Min_cycle;Max_cycle;Signal;HPM_P1;HPM_P2
2023/09/19 00:00:35;;;;;;;5.47;1.63;;;;;;;;;;5053758;28;20483;-75
2023/09/19 00:03:04;;;;;;;3.00;1.63;;;;;;;;;;5054603;28;20425;-75
2023/09/19 00:05:32;;;;;;;4.90;1.57;;;;;;;;;;5036178;28;20557;-75
2023/09/19 00:07:59;;;;;;;3.23;1.50;;;;;;;;;;5034474;28;20488;-75
2023/09/19 00:10:27;;;;;;;3.63;1.53;;;;;;;;;;5034437;28;20851;-75
2023/09/19 00:12:55;;;;;;;4.23;1.80;;;;;;;;;;5034037;28;20466;-75
2023/09/19 00:15:24;;;;;;;3.80;1.57;;;;;;;;;;5034438;28;20442;-75
2023/09/19 00:17:53;;;;;;;3.27;1.73;;;;;;;;;;5033880;28;20461;-75
2023/09/19 00:20:22;;;;;;;3.27;1.60;;;;;;;;;;5034144;28;20473;-75
2023/09/19 00:22:50;;;;;;;3.77;1.93;;;;;;;;;;5034147;28;20445;-75
2023/09/19 00:25:18;;;;;;;3.07;1.50;;;;;;;;;;5034317;28;20562;-75
2023/09/19 00:27:45;;;;;;;3.60;1.87;;;;;;;;;;5034078;28;20489;-75
2023/09/19 00:30:16;;;;;;;3.90;1.47;;;;;;;;;;5034007;28;20525;-75
2023/09/19 00:32:47;;;;;;;5.47;2.30;;;;;;;;;;5032598;28;20423;-75
2023/09/19 00:35:15;;;;;;;3.97;1.90;;;;;;;;;;5033197;28;20426;-75
2023/09/19 00:37:42;;;;;;;3.57;1.53;;;;;;;;;;5034148;28;20482;-75
2023/09/19 00:40:12;;;;;;;4.30;1.53;;;;;;;;;;5033873;28;20785;-75
2023/09/19 00:42:40;;;;;;;7.40;3.20;;;;;;;;;;5034030;28;20434;-75
2023/09/19 00:45:09;;;;;;;3.20;1.63;;;;;;;;;;5033391;28;20474;-75
2023/09/19 00:47:37;;;;;;;3.00;1.30;;;;;;;;;;5033425;28;20445;-75
2023/09/19 00:50:08;;;;;;;2.83;1.07;;;;;;;;;;5052311;28;20476;-75
2023/09/19 00:52:38;;;;;;;4.33;1.63;;;;;;;;;;5036431;28;20436;-75
2023/09/19 00:55:06;;;;;;;3.63;1.47;;;;;;;;;;5033709;28;20438;-75
2023/09/19 00:57:36;;;;;;;2.90;1.43;;;;;;;;;;5033256;28;20522;-75
2023/09/19 01:00:07;;;;;;;6.63;2.20;;;;;;;;;;5033307;28;20473;-75
2023/09/19 01:02:34;;;;;;;5.97;1.30;;;;;;;;;;5033364;28;20441;-75
2023/09/19 01:05:04;;;;;;;3.30;1.10;;;;;;;;;;5033046;28;20520;-75
2023/09/19 01:07:34;;;;;;;2.90;1.03;;;;;;;;;;5049322;28;20437;-75
2023/09/19 01:10:02;;;;;;;2.47;1.00;;;;;;;;;;5052257;28;20537;-75
2023/09/19 01:12:32;;;;;;;2.83;1.30;;;;;;;;;;5053681;28;20433;-75
2023/09/19 01:15:05;;;;;;;5.13;2.10;;;;;;;;;;5053100;28;20433;-75
2023/09/19 01:17:36;;;;;;;3.83;1.67;;;;;;;;;;5053319;28;20516;-75
2023/09/19 01:20:13;;;;;;;2.97;1.43;;;;;;;;;;5052883;28;20425;-75
2023/09/19 01:22:51;;;;;;;2.40;1.50;;;;;;;;;;5013643;28;20493;-75
2023/09/19 01:25:39;;;;;;;2.77;1.43;;;;;;;;;;5013563;28;20467;-75
2023/09/19 01:28:16;;;;;;;5.00;1.90;;;;;;;;;;5013600;28;20435;-75
2023/09/19 01:30:46;;;;;;;4.50;1.57;;;;;;;;;;5013444;28;20428;-76
2023/09/19 01:33:14;;;;;;;3.60;1.63;;;;;;;;;;5013209;28;20482;-75
2023/09/19 01:35:42;;;;;;;5.63;1.37;;;;;;;;;;5020625;28;20845;-76
2023/09/19 01:38:11;;;;;;;3.00;1.53;;;;;;;;;;5032843;28;20855;-76
2023/09/19 01:40:41;;;;;;;4.80;1.27;;;;;;;;;;5033363;28;20449;-75
2023/09/19 01:43:11;;;;;;;4.10;1.60;;;;;;;;;;5033181;28;20443;-75
2023/09/19 01:45:44;;;;;;;3.13;1.50;;;;;;;;;;5036388;28;20466;-76
2023/09/19 01:48:20;;;;;;;3.30;1.37;;;;;;;;;;5042981;28;20433;-75
2023/09/19 01:50:52;;;;;;;3.50;1.20;;;;;;;;;;5057036;28;20425;-75
2023/09/19 01:53:23;;;;;;;2.87;1.10;;;;;;;;;;5056738;28;20490;-75
2023/09/19 01:55:52;;;;;;;3.77;1.47;;;;;;;;;;5056609;28;20441;-75
2023/09/19 01:58:23;;;;;;;3.83;1.10;;;;;;;;;;5054545;28;20855;-75
2023/09/19 02:00:51;;;;;;;6.33;1.97;;;;;;;;;;5017034;28;20506;-75
2023/09/19 02:03:22;;;;;;;4.27;1.80;;;;;;;;;;5017108;28;20508;-75
2023/09/19 02:05:51;;;;;;;4.37;1.53;;;;;;;;;;5016596;28;20501;-75
2023/09/19 02:08:23;;;;;;;3.13;1.30;;;;;;;;;;5016972;28;20527;-75
2023/09/19 02:10:51;;;;;;;3.00;1.30;;;;;;;;;;5017058;28;20510;-75
2023/09/19 02:13:18;;;;;;;3.50;1.50;;;;;;;;;;5016720;28;20431;-75
2023/09/19 02:15:46;;;;;;;2.73;1.40;;;;;;;;;;5016558;28;20932;-75
2023/09/19 02:18:14;;;;;;;4.30;1.67;;;;;;;;;;5019460;28;20435;-75
2023/09/19 02:20:43;;;;;;;3.37;1.67;;;;;;;;;;5036458;28;20442;-75
2023/09/19 02:23:11;;;;;;;4.40;1.77;;;;;;;;;;5036512;28;20485;-76
2023/09/19 02:25:40;;;;;;;4.20;1.77;;;;;;;;;;5036104;28;20543;-75
2023/09/19 02:28:09;;;;;;;3.10;1.33;;;;;;;;;;5035961;28;20452;-75
2023/09/19 02:30:37;;;;;;;2.80;1.73;;;;;;;;;;5053546;28;20441;-75
2023/09/19 02:33:05;;;;;;;3.30;1.30;;;;;;;;;;5053206;28;20438;-76
2023/09/19 02:35:35;;;;;;;4.27;1.60;;;;;;;;;;5056323;28;20867;-75
2023/09/19 02:38:06;;;;;;;4.27;1.77;;;;;;;;;;5056257;28;20493;-75
2023/09/19 02:40:35;;;;;;;4.13;2.03;;;;;;;;;;5056550;28;20421;-75
2023/09/19 02:43:03;;;;;;;2.70;1.67;;;;;;;;;;5016111;28;20427;-75
2023/09/19 02:45:31;;;;;;;2.60;1.40;;;;;;;;;;5015858;28;20964;-76
2023/09/19 02:47:58;;;;;;;2.73;1.60;;;;;;;;;;5016072;28;20984;-75
2023/09/19 02:50:25;;;;;;;3.30;1.47;;;;;;;;;;5016287;28;20439;-75
2023/09/19 02:52:53;;;;;;;3.03;1.50;;;;;;;;;;5052967;28;20479;-75
2023/09/19 02:55:21;;;;;;;6.33;1.60;;;;;;;;;;5054828;28;20454;-75
2023/09/19 02:57:49;;;;;;;6.30;1.57;;;;;;;;;;5055409;28;20483;-75
2023/09/19 03:00:17;;;;;;;3.43;1.47;;;;;;;;;;5055481;28;20465;-75
2023/09/19 03:02:44;;;;;;;3.07;1.17;;;;;;;;;;5038174;28;20438;-75
2023/09/19 03:05:12;;;;;;;3.73;1.10;;;;;;;;;;5035749;28;20480;-75
2023/09/19 03:07:39;;;;;;;4.23;1.50;;;;;;;;;;5036027;28;20865;-76
2023/09/19 03:10:07;;;;;;;7.10;1.87;;;;;;;;;;5035946;28;20438;-75
2023/09/19 03:12:36;;;;;;;4.33;1.13;;;;;;;;;;5049721;28;20437;-76
2023/09/19 03:15:04;;;;;;;4.40;1.50;;;;;;;;;;5035434;28;20434;-75
2023/09/19 03:17:32;;;;;;;5.40;1.90;;;;;;;;;;5035441;28;20439;-76
2023/09/19 03:19:59;;;;;;;2.70;1.40;;;;;;;;;;5035565;28;20576;-75
2023/09/19 03:22:28;;;;;;;2.97;1.37;;;;;;;;;;5049573;28;20830;-75
2023/09/19 03:24:55;;;;;;;3.23;1.23;;;;;;;;;;5054966;28;20800;-75
2023/09/19 03:27:23;;;;;;;2.60;1.63;;;;;;;;;;5055260;28;20543;-75
2023/09/19 03:29:51;;;;;;;2.50;1.23;;;;;;;;;;5055437;28;20464;-75
2023/09/19 03:32:19;;;;;;;3.20;1.33;;;;;;;;;;5041596;28;20442;-75
2023/09/19 03:34:48;;;;;;;3.07;1.60;;;;;;;;;;5035083;28;20496;-75
2023/09/19 03:37:15;;;;;;;2.97;1.23;;;;;;;;;;5035135;28;20508;-75
2023/09/19 03:39:43;;;;;;;2.43;1.30;;;;;;;;;;5035131;28;20442;-75
2023/09/19 03:42:10;;;;;;;6.23;1.80;;;;;;;;;;5046233;28;20446;-75
2023/09/19 03:44:38;;;;;;;4.50;1.37;;;;;;;;;;5055000;28;20491;-75
2023/09/19 03:47:07;;;;;;;2.47;1.27;;;;;;;;;;5054384;28;20484;-75
2023/09/19 03:49:35;;;;;;;2.90;1.40;;;;;;;;;;5054902;28;20437;-75
2023/09/19 03:52:02;;;;;;;2.53;1.30;;;;;;;;;;5044167;28;20465;-75
2023/09/19 03:54:29;;;;;;;7.63;1.30;;;;;;;;;;5035133;28;20446;-75
2023/09/19 03:56:57;;;;;;;2.37;1.20;;;;;;;;;;5034497;28;20438;-75
2023/09/19 03:59:24;;;;;;;3.90;1.50;;;;;;;;;;5034431;28;20438;-75
2023/09/19 04:01:55;;;;;;;3.00;1.33;;;;;;;;;;5042359;28;20525;-75
2023/09/19 04:04:25;;;;;;;3.40;1.37;;;;;;;;;;5054344;28;20904;-75
2023/09/19 04:06:53;;;;;;;2.20;0.90;;;;;;;;;;5053976;28;20974;-75
2023/09/19 04:09:20;;;;;;;2.60;1.20;;;;;;;;;;5054505;28;20442;-75
2023/09/19 04:11:49;;;;;;;2.47;1.10;;;;;;;;;;5046464;28;20430;-75
2023/09/19 04:14:17;;;;;;;7.37;1.30;;;;;;;;;;5034393;28;20493;-75
2023/09/19 04:16:44;;;;;;;2.60;1.00;;;;;;;;;;5034277;28;20442;-75
2023/09/19 04:19:12;;;;;;;2.43;1.30;;;;;;;;;;5034345;28;20438;-75
2023/09/19 04:21:41;;;;;;;4.10;1.23;;;;;;;;;;5039915;28;20449;-75
2023/09/19 04:24:09;;;;;;;2.27;0.90;;;;;;;;;;5054176;28;20528;-75
2023/09/19 04:26:36;;;;;;;2.40;1.10;;;;;;;;;;5054050;28;20567;-75
2023/09/19 04:29:05;;;;;;;2.90;0.87;;;;;;;;;;5054315;28;20441;-76
2023/09/19 04:31:33;;;;;;;2.47;1.00;;;;;;;;;;5039549;28;20484;-75
2023/09/19 04:34:04;;;;;;;2.30;0.97;;;;;;;;;;5054032;28;20782;-75
2023/09/19 04:36:32;;;;;;;2.40;1.00;;;;;;;;;;5054247;28;20491;-76
2023/09/19 04:39:04;;;;;;;3.47;1.23;;;;;;;;;;5053920;28;20438;-75
2023/09/19 04:41:32;;;;;;;2.53;1.40;;;;;;;;;;5049224;28;20427;-75
2023/09/19 04:43:59;;;;;;;3.63;1.30;;;;;;;;;;5033887;28;20520;-75
2023/09/19 04:46:26;;;;;;;3.67;1.10;;;;;;;;;;5033701;28;20474;-76
2023/09/19 04:48:53;;;;;;;3.03;1.13;;;;;;;;;;5033592;28;20446;-75
2023/09/19 04:51:21;;;;;;;2.50;1.27;;;;;;;;;;5036000;28;20461;-75
2023/09/19 04:53:49;;;;;;;2.23;0.90;;;;;;;;;;5051500;28;20556;-75
2023/09/19 04:56:18;;;;;;;3.37;1.40;;;;;;;;;;5053111;28;20524;-75
2023/09/19 04:58:46;;;;;;;3.83;1.43;;;;;;;;;;5053219;28;20433;-75
2023/09/19 05:01:15;;;;;;;4.43;1.20;;;;;;;;;;5050990;28;20527;-76
2023/09/19 05:03:42;;;;;;;3.80;0.97;;;;;;;;;;5031870;28;20485;-75
2023/09/19 05:06:09;;;;;;;2.83;1.10;;;;;;;;;;5032992;28;20573;-75
2023/09/19 05:08:42;;;;;;;5.70;1.33;;;;;;;;;;5033224;28;20504;-75
2023/09/19 05:11:10;;;;;;;2.43;1.03;;;;;;;;;;5032567;28;20513;-75
2023/09/19 05:13:38;;;;;;;2.53;1.13;;;;;;;;;;5032626;28;20797;-74
2023/09/19 05:16:07;;;;;;;2.33;1.10;;;;;;;;;;5041417;28;20507;-75
2023/09/19 05:18:34;;;;;;;2.57;1.20;;;;;;;;;;5052118;28;20478;-76
2023/09/19 05:21:05;;;;;;;3.10;1.77;;;;;;;;;;5052437;28;20447;-75
2023/09/19 05:23:32;;;;;;;3.07;1.27;;;;;;;;;;5052566;28;20446;-75
2023/09/19 05:26:00;;;;;;;2.77;1.50;;;;;;;;;;5043247;28;20442;-75
2023/09/19 05:28:29;;;;;;;2.60;1.03;;;;;;;;;;5032224;28;20477;-75
2023/09/19 05:30:59;;;;;;;2.53;1.03;;;;;;;;;;5032496;28;20469;-75
2023/09/19 05:33:27;;;;;;;3.20;1.20;;;;;;;;;;5032355;28;20905;-75
2023/09/19 05:35:58;;;;;;;3.10;1.30;;;;;;;;;;5040002;28;20438;-75
2023/09/19 05:38:27;;;;;;;2.03;0.90;;;;;;;;;;5051360;28;20436;-75
2023/09/19 05:40:56;;;;;;;2.60;1.30;;;;;;;;;;5042317;28;20474;-75
2023/09/19 05:43:24;;;;;;;2.67;1.40;;;;;;;;;;5032468;28;20430;-75
2023/09/19 05:45:52;;;;;;;2.80;1.20;;;;;;;;;;5031816;28;20466;-75
2023/09/19 05:48:20;;;;;;;2.10;0.90;;;;;;;;;;5032145;28;20441;-75
2023/09/19 05:50:48;;;;;;;3.67;1.30;;;;;;;;;;5032387;28;20438;-75
2023/09/19 05:53:16;;;;;;;3.03;1.07;;;;;;;;;;5032245;28;20435;-75
2023/09/19 05:55:43;;;;;;;2.40;1.00;;;;;;;;;;5032365;28;20478;-75
2023/09/19 05:58:13;;;;;;;2.50;1.30;;;;;;;;;;5045957;28;20979;-75
2023/09/19 06:00:44;;;;;;;2.50;1.40;;;;;;;;;;5051882;28;21052;-75
2023/09/19 06:03:13;;;;;;;3.20;1.20;;;;;;;;;;5052092;28;20453;-75
2023/09/19 06:05:42;;;;;;;2.73;0.90;;;;;;;;;;5031342;28;20451;-75
2023/09/19 06:08:10;;;;;;;2.20;1.10;;;;;;;;;;5011886;28;20533;-75
2023/09/19 06:10:37;;;;;;;2.50;0.90;;;;;;;;;;5011054;28;20497;-75
2023/09/19 06:13:06;;;;;;;6.53;2.00;;;;;;;;;;5023418;28;20446;-75
2023/09/19 06:15:35;;;;;;;4.13;1.33;;;;;;;;;;5032061;28;20520;-75
2023/09/19 06:18:04;;;;;;;3.40;1.30;;;;;;;;;;5036274;28;20438;-75
2023/09/19 06:20:33;;;;;;;8.30;1.50;;;;;;;;;;5034211;28;20797;-75
2023/09/19 06:23:02;;;;;;;4.40;1.20;;;;;;;;;;5031618;28;20454;-76
2023/09/19 06:25:29;;;;;;;2.30;0.90;;;;;;;;;;5032062;28;20441;-75
2023/09/19 06:27:58;;;;;;;2.87;1.10;;;;;;;;;;5031636;28;20470;-76
2023/09/19 06:30:26;;;;;;;4.53;1.37;;;;;;;;;;5032032;28;20504;-75
2023/09/19 06:32:57;;;;;;;3.37;1.10;;;;;;;;;;5035826;28;20472;-75
2023/09/19 06:35:26;;;;;;;2.83;1.10;;;;;;;;;;5035410;28;20797;-75
2023/09/19 06:37:53;;;;;;;2.73;1.10;;;;;;;;;;5035632;28;20449;-75
2023/09/19 06:40:22;;;;;;;2.53;1.00;;;;;;;;;;5034873;28;20473;-75
2023/09/19 06:42:52;;;;;;;2.17;0.80;;;;;;;;;;5035860;28;20438;-75
2023/09/19 06:45:21;;;;;;;3.23;1.00;;;;;;;;;;5035836;28;20430;-75
2023/09/19 06:47:50;;;;;;;4.00;1.17;;;;;;;;;;5035275;28;20480;-75
2023/09/19 06:50:18;;;;;;;3.90;1.90;;;;;;;;;;5035405;28;20516;-75
2023/09/19 06:52:46;;;;;;;2.97;1.30;;;;;;;;;;5035564;28;20438;-75
2023/09/19 06:55:16;;;;;;;3.17;1.70;;;;;;;;;;5034920;28;20448;-75
2023/09/19 06:57:45;;;;;;;3.23;1.50;;;;;;;;;;5034920;28;20917;-75
2023/09/19 07:00:18;;;;;;;2.73;1.07;;;;;;;;;;5034717;28;20465;-75
2023/09/19 07:02:45;;;;;;;2.47;1.17;;;;;;;;;;5030697;28;20431;-75
2023/09/19 07:05:13;;;;;;;3.57;1.10;;;;;;;;;;5034271;28;20504;-75
2023/09/19 07:07:40;;;;;;;2.70;1.07;;;;;;;;;;5034617;28;20561;-75
2023/09/19 07:10:11;;;;;;;3.97;1.90;;;;;;;;;;5034833;28;20442;-75
2023/09/19 07:12:38;;;;;;;4.10;1.30;;;;;;;;;;5034639;28;20418;-75
2023/09/19 07:15:08;;;;;;;2.93;1.20;;;;;;;;;;5034635;28;20434;-75
2023/09/19 07:17:36;;;;;;;2.40;1.00;;;;;;;;;;5034849;28;20939;-75
2023/09/19 07:20:08;;;;;;;3.20;1.20;;;;;;;;;;5034520;28;20547;-75
2023/09/19 07:22:36;;;;;;;3.07;1.10;;;;;;;;;;5034808;28;20509;-76
2023/09/19 07:25:03;;;;;;;2.77;1.37;;;;;;;;;;5034885;28;20473;-75
2023/09/19 07:27:30;;;;;;;2.80;1.00;;;;;;;;;;5034286;28;20516;-75
2023/09/19 07:29:58;;;;;;;2.43;1.00;;;;;;;;;;5034159;28;20438;-75
2023/09/19 07:32:27;;;;;;;3.00;1.10;;;;;;;;;;5034146;28;20423;-75
2023/09/19 07:34:55;;;;;;;3.43;2.03;;;;;;;;;;5034522;28;20438;-75
2023/09/19 07:37:25;;;;;;;3.07;0.80;;;;;;;;;;5034123;28;20450;-75
2023/09/19 07:39:52;;;;;;;4.33;1.07;;;;;;;;;;5034175;28;20465;-75
2023/09/19 07:42:20;;;;;;;3.43;1.10;;;;;;;;;;5033811;28;20449;-75
2023/09/19 07:44:53;;;;;;;4.17;1.17;;;;;;;;;;5034486;28;20525;-75
2023/09/19 07:47:21;;;;;;;2.87;0.87;;;;;;;;;;5033882;28;20462;-75
2023/09/19 07:49:50;;;;;;;4.97;0.70;;;;;;;;;;5034443;28;20437;-75
2023/09/19 07:52:17;;;;;;;2.73;1.40;;;;;;;;;;5033534;28;21018;-75
2023/09/19 07:54:45;;;;;;;2.67;0.90;;;;;;;;;;5034120;28;20434;-75
2023/09/19 07:57:12;;;;;;;2.30;0.80;;;;;;;;;;5033775;28;20438;-75
2023/09/19 07:59:41;;;;;;;3.17;0.77;;;;;;;;;;5033771;28;20439;-75
2023/09/19 08:02:15;;;;;;;3.30;0.73;;;;;;;;;;5033646;28;20501;-75
2023/09/19 08:04:42;;;;;;;11.03;1.27;;;;;;;;;;5033563;28;20437;-75
2023/09/19 08:07:16;;;;;;;2.43;0.80;;;;;;;;;;5033819;28;20478;-76
2023/09/19 08:09:46;;;;;;;3.07;1.20;;;;;;;;;;5033777;28;20428;-75
2023/09/19 08:12:14;;;;;;;3.37;1.00;;;;;;;;;;5033452;28;20485;-75
2023/09/19 08:14:42;;;;;;;2.50;1.03;;;;;;;;;;5033400;28;20445;-76
2023/09/19 08:17:12;;;;;;;2.37;0.83;;;;;;;;;;5033171;28;21066;-76
2023/09/19 08:19:41;;;;;;;2.80;0.87;;;;;;;;;;5033499;28;20445;-75
2023/09/19 08:22:10;;;;;;;3.33;1.13;;;;;;;;;;5033318;28;20446;-76
2023/09/19 08:24:39;;;;;;;2.10;0.70;;;;;;;;;;5033529;28;20448;-76
2023/09/19 08:27:09;;;;;;;2.73;0.93;;;;;;;;;;5033561;28;20473;-75
2023/09/19 08:29:37;;;;;;;5.40;0.93;;;;;;;;;;5033189;28;20523;-76
2023/09/19 08:32:04;;;;;;;2.33;0.80;;;;;;;;;;5033792;28;20444;-75
2023/09/19 08:34:33;;;;;;;2.40;0.97;;;;;;;;;;5033461;28;20441;-76
2023/09/19 08:37:01;;;;;;;2.70;0.70;;;;;;;;;;5033124;28;20527;-75
2023/09/19 08:39:35;;;;;;;5.60;0.90;;;;;;;;;;5033131;28;20508;-76
2023/09/19 08:42:04;;;;;;;4.37;0.97;;;;;;;;;;5033366;28;20427;-75
2023/09/19 08:44:32;;;;;;;2.30;0.90;;;;;;;;;;5032843;28;20990;-75
2023/09/19 08:47:03;;;;;;;2.80;0.93;;;;;;;;;;5033034;28;20439;-75
2023/09/19 08:49:38;;;;;;;2.27;0.93;;;;;;;;;;5033225;28;20897;-75
2023/09/19 08:52:10;;;;;;;2.40;0.90;;;;;;;;;;5033115;28;20507;-75
2023/09/19 08:54:43;;;;;;;2.00;0.70;;;;;;;;;;5031982;28;20474;-75
2023/09/19 08:57:21;;;;;;;3.57;0.70;;;;;;;;;;5032858;28;20468;-75
2023/09/19 08:59:50;;;;;;;2.17;0.80;;;;;;;;;;5032763;28;20475;-75
2023/09/19 09:02:19;;;;;;;3.00;1.00;;;;;;;;;;5032869;28;20442;-76
2023/09/19 09:04:48;;;;;;;2.40;0.80;;;;;;;;;;5032814;28;20514;-76
2023/09/19 09:07:18;;;;;;;2.67;0.80;;;;;;;;;;5032777;28;20484;-75
2023/09/19 09:09:46;;;;;;;2.10;0.77;;;;;;;;;;5032869;28;20464;-76
2023/09/19 09:12:18;;;;;;;3.10;0.80;;;;;;;;;;5033115;28;20525;-76
2023/09/19 09:14:49;;;;;;;2.83;1.27;;;;;;;;;;5032732;28;20419;-74
2023/09/19 09:17:20;;;;;;;3.30;0.70;;;;;;;;;;5032743;28;20540;-74
2023/09/19 09:19:47;;;;;;;2.60;0.90;;;;;;;;;;5032450;28;20509;-74
2023/09/19 09:22:16;;;;;;;5.30;0.77;;;;;;;;;;5032620;28;20615;-74
2023/09/19 09:24:53;;;;;;;2.30;0.90;;;;;;;;;;5032552;28;20446;-74
2023/09/19 09:27:23;;;;;;;2.40;0.80;;;;;;;;;;5032621;28;22405;-74
2023/09/19 09:29:51;;;;;;;3.40;1.00;;;;;;;;;;5032855;28;20423;-73
2023/09/19 09:32:21;;;;;;;2.03;0.80;;;;;;;;;;5032172;28;20925;-74
2023/09/19 09:34:50;;;;;;;2.80;1.00;;;;;;;;;;5032406;28;20422;-74
2023/09/19 09:37:19;;;;;;;2.97;1.00;;;;;;;;;;5032508;28;20434;-74
2023/09/19 09:39:56;;;;;;;2.50;1.10;;;;;;;;;;5032564;28;20517;-74
2023/09/19 09:42:38;;;;;;;2.03;0.80;;;;;;;;;;5032414;28;20422;-74
2023/09/19 09:45:16;;;;;;;2.30;1.03;;;;;;;;;;5032243;28;20430;-74
2023/09/19 09:47:49;;;;;;;3.70;1.17;;;;;;;;;;5032341;28;20481;-74
2023/09/19 09:50:29;;;;;;;2.53;1.33;;;;;;;;;;5032473;28;20905;-74
2023/09/19 09:53:01;;;;;;;4.13;1.47;;;;;;;;;;5032365;28;20496;-74
2023/09/19 09:55:30;;;;;;;2.40;1.00;;;;;;;;;;5032632;28;20470;-74
2023/09/19 09:58:13;;;;;;;3.33;0.93;;;;;;;;;;5032239;28;20495;-74
2023/09/19 10:00:57;;;;;;;2.80;1.07;;;;;;;;;;5031903;28;20470;-74
2023/09/19 10:03:33;;;;;;;8.10;1.30;;;;;;;;;;5032255;28;20804;-75
2023/09/19 10:06:09;;;;;;;4.23;1.87;;;;;;;;;;5034338;28;20440;-74
2023/09/19 10:08:36;;;;;;;2.97;1.00;;;;;;;;;;5036098;28;20465;-74
2023/09/19 10:11:17;;;;;;;2.37;1.00;;;;;;;;;;5032926;28;20426;-74
2023/09/19 10:13:46;;;;;;;5.30;1.47;;;;;;;;;;5035968;28;20526;-74
2023/09/19 10:16:18;;;;;;;3.53;0.90;;;;;;;;;;5033285;28;20437;-74
2023/09/19 10:18:47;;;;;;;2.23;1.00;;;17.30;96.90;;;;;;5035839;28;20828;-74
2023/09/19 10:21:14;;;;;;;5.47;0.73;;;43.20;17.60;;;;;;5035594;28;20971;-74
2023/09/19 10:23:45;;;;;;;5.80;1.10;;;;;;;;;;5035979;28;20544;-74
2023/09/19 10:26:12;;;;;;;2.30;0.80;;;;;;;;;;5035420;28;20429;-76
2023/09/19 10:28:40;;;;;;;3.07;1.27;;;;;;;;;;5035646;28;20470;-76
2023/09/19 10:31:14;;;;;;;2.70;1.03;;;;;;;;;;5035674;28;20442;-76
2023/09/19 10:33:42;;;;;;;2.77;1.07;;;;;;;;;;5035449;28;20426;-76
2023/09/19 10:36:12;;;;;;;2.37;1.10;;;;;;;;;;5035037;28;20819;-75
2023/09/19 10:38:45;;;;;;;3.33;1.10;;;43.60;17.90;;;;;;5035628;28;20779;-76
2023/09/19 10:41:17;;;;;;;2.37;0.97;;;38.70;19.00;;;;;;5035290;28;20427;-76
2023/09/19 10:43:46;;;;;;;2.20;1.10;;;37.30;20.70;;;;;;5035586;28;20425;-76
2023/09/19 10:46:14;;;;;;;3.90;1.03;;;38.20;22.70;;;;;;5035063;28;20475;-76
2023/09/19 10:48:45;;;;;;;2.50;1.20;;;42.10;19.70;;;;;;5035102;28;20874;-76
2023/09/19 10:51:19;;;;;;;3.67;1.37;;;45.50;18.10;;;;;;5035531;28;20794;-76
2023/09/19 10:53:51;;;;;;;2.37;1.23;;;48.90;15.20;;;;;;5034887;28;20449;-74
2023/09/19 10:56:24;;;;;;;2.40;1.10;;;50.00;13.30;;;;;;5035422;28;20833;-74
2023/09/19 10:58:51;;;;;;;2.27;0.90;;;50.30;12.20;;;;;;5034944;28;20422;-74
2023/09/19 11:01:26;;;;;;;4.30;1.00;;;49.80;11.90;;;;;;5035118;28;20516;-74
2023/09/19 11:04:23;;;;;;;2.50;1.00;;;48.10;12.40;;;;;;5035225;28;20512;-74
2023/09/19 11:07:04;;;;;;;3.60;0.97;;;45.20;13.40;;;;;;5051807;28;20469;-74
2023/09/19 11:09:57;;;;;;;2.37;0.97;;;42.50;15.60;;;;;;5054628;28;20475;-74
2023/09/19 11:12:51;;;;;;;6.20;1.70;;;40.40;16.80;;;;;;5038159;28;20437;-74
2023/09/19 11:16:04;;;;;;;2.80;1.30;;;39.90;18.40;;;;;;5034133;28;20426;-74
2023/09/19 11:18:54;;;;;;;2.13;0.90;;;38.80;18.20;;;;;;5034469;28;20574;-76
2023/09/19 11:21:56;;;;;;;2.97;1.07;;;37.00;18.90;;;;;;5032019;28;20447;-76
2023/09/19 11:24:35;;;;;;;4.20;1.10;;;35.60;20.60;;;;;;5033180;28;20443;-76
2023/09/19 11:27:13;;;;;;;2.37;1.20;;;34.80;21.90;;;;;;5031456;28;20427;-76
2023/09/19 11:29:41;;;;;;;2.93;1.10;;;33.90;23.00;;;;;;5034393;28;20458;-75
2023/09/19 11:32:09;;;;;;;2.90;1.17;;;32.90;24.00;;;;;;5034519;28;20941;-76
2023/09/19 11:34:54;;;;;;;2.60;1.20;;;31.90;24.10;;;;;;5025007;28;20558;-75
2023/09/19 11:38:11;;;;;;;3.07;1.40;;;31.20;25.90;;;;;;5026769;28;20500;-76
2023/09/19 11:40:55;;;;;;;3.37;1.17;;;31.10;26.80;;;;;;5042532;28;20422;-76
2023/09/19 11:43:35;;;;;;;6.40;1.20;;;31.00;27.30;;;;;;5034316;28;20885;-75
2023/09/19 11:46:07;;;;;;;2.40;0.93;;;31.10;27.30;;;;;;5041726;28;20532;-76
2023/09/19 11:48:45;;;;;;;2.40;1.13;;;31.10;27.10;;;;;;5032824;28;20472;-76
2023/09/19 11:51:22;;;;;;;2.47;1.10;;;31.20;27.30;;;;;;5033840;28;20909;-76
2023/09/19 11:53:49;;;;;;;3.83;1.30;;;31.50;27.60;;;;;;5033485;28;20437;-75
2023/09/19 11:56:20;;;;;;;3.00;1.30;;;31.50;27.70;;;;;;5034097;28;20434;-75
2023/09/19 11:58:48;;;;;;;3.00;1.30;;;31.70;28.00;;;;;;5034170;28;20430;-76
2023/09/19 12:01:22;;;;;;;2.70;1.20;;;33.00;28.00;;;;;;5033792;28;20470;-76
2023/09/19 12:03:56;;;;;;;3.73;1.50;;;36.40;24.90;;;;;;5033978;28;20902;-76
2023/09/19 12:06:25;;;;;;;3.50;1.67;;;40.40;22.50;;;;;;5034030;28;20458;-76
2023/09/19 12:08:53;;;;;;;3.43;1.27;;;43.40;19.30;;;;;;5033657;28;20474;-76
2023/09/19 12:11:24;;;;;;;5.13;1.57;;;45.60;17.80;;;;;;5033677;28;20438;-77
2023/09/19 12:13:53;;;;;;;3.40;1.10;;;47.40;16.30;;;;;;5033555;28;20897;-77
2023/09/19 12:16:24;;;;;;;3.43;1.20;;;48.60;15.50;;;;;;5033658;28;20441;-77
2023/09/19 12:18:52;;;;;;;2.40;1.00;;;49.30;14.00;;;;;;5033480;28;20967;-75
2023/09/19 12:21:29;;;;;;;2.67;1.10;;;49.30;12.50;;;;;;5033445;28;20472;-74
2023/09/19 12:24:16;;;;;;;2.57;1.20;;;46.60;13.30;;;;;;5033610;28;20504;-74
2023/09/19 12:26:47;;;;;;;3.07;1.10;;;45.70;15.00;;;;;;5033652;28;20464;-74
2023/09/19 12:29:17;;;;;;;4.23;1.03;;;46.50;15.60;;;;;;5033189;28;20493;-75
2023/09/19 12:31:51;;;;;;;6.47;1.47;;;46.60;13.50;;;;;;5033411;28;20449;-74
2023/09/19 12:34:22;;;;;;;1.90;0.70;;;45.40;14.90;;;;;;5033304;28;20440;-75
2023/09/19 12:36:49;;;;;;;7.70;1.67;;;45.20;14.70;;;;;;5033494;28;20434;-74
2023/09/19 12:39:26;;;;;;;2.63;0.90;;;44.20;15.30;;;;;;5033075;28;20492;-74
2023/09/19 12:41:55;;;;;;;3.03;1.10;;;43.40;15.50;;;;;;5033553;28;20479;-74
2023/09/19 12:44:24;;;;;;;3.50;1.13;;;42.80;16.60;;;;;;5033441;28;20474;-74
2023/09/19 12:46:54;;;;;;;2.30;0.93;;;43.70;15.80;;;;;;5032868;28;20496;-74
2023/09/19 12:49:22;;;;;;;7.90;1.10;;;44.70;15.90;;;;;;5032968;28;20473;-74
2023/09/19 12:51:50;;;;;;;2.10;1.00;;;45.70;15.00;;;;;;5033244;28;20738;-75
2023/09/19 12:54:18;;;;;;;3.23;1.40;;;44.10;14.60;;;;;;5032998;28;20470;-74
2023/09/19 12:56:48;;;;;;;3.00;0.90;;;43.60;16.00;;;;;;5033059;28;20866;-74
2023/09/19 12:59:17;;;;;;;2.80;0.87;;;44.20;15.70;;;;;;5032800;28;20434;-74
2023/09/19 13:01:46;;;;;;;2.43;0.70;;;44.70;15.40;;;;;;5032464;28;20474;-74
2023/09/19 13:04:18;;;;;;;2.40;0.90;;;44.90;16.10;;;;;;5032892;28;20443;-74
2023/09/19 13:06:45;;;;;;;2.43;0.90;;;45.40;14.80;;;;;;5032964;28;20430;-76
2023/09/19 13:09:14;;;;;;;2.50;0.93;;;45.50;15.30;;;;;;5032824;28;20481;-76
2023/09/19 13:11:43;;;;;;;3.27;1.00;;;44.50;15.60;;;;;;5032832;28;20430;-76
2023/09/19 13:14:18;;;;;;;2.70;1.17;;;42.70;16.20;;;;;;5032758;28;20433;-76
2023/09/19 13:17:03;;;;;;;2.33;0.77;;;40.50;17.30;;;;;;5032362;28;20508;-76
2023/09/19 13:19:41;;;;;;;2.57;0.90;;;38.40;19.50;;;;;;5032881;28;20428;-76
2023/09/19 13:22:38;;;;;;;2.40;0.83;;;36.80;21.30;;;;;;5032702;28;20420;-76
2023/09/19 13:25:06;;;;;;;1.90;0.70;;;35.50;22.60;;;;;;5032624;28;20432;-76
2023/09/19 13:27:33;;;;;;;2.60;1.00;;;34.50;23.90;;;;;;5032730;28;20442;-76
2023/09/19 13:30:02;;;;;;;2.87;1.17;;;33.60;24.40;;;;;;5032845;28;20485;-76
2023/09/19 13:32:29;;;;;;;3.23;0.97;;;32.80;25.30;;;;;;5032155;28;20497;-76
2023/09/19 13:34:56;;;;;;;2.90;1.00;;;32.10;26.00;;;;;;5032407;28;20481;-75
2023/09/19 13:37:23;;;;;;;3.40;1.23;;;31.60;27.10;;;;;;5032554;28;20473;-75
2023/09/19 13:39:51;;;;;;;2.87;1.13;;;31.20;27.90;;;;;;5033221;28;20504;-75
2023/09/19 13:42:21;;;;;;;3.33;0.90;;;30.80;28.40;;;;;;5036529;28;20473;-76
2023/09/19 13:44:48;;;;;;;2.50;1.20;;;30.40;28.60;;;;;;5036947;28;20468;-75
2023/09/19 13:47:16;;;;;;;2.27;0.90;;;30.10;29.20;;;;;;5036657;28;20519;-76
2023/09/19 13:49:44;;;;;;;2.50;0.73;;;29.80;29.40;;;;;;5036430;28;20470;-76
2023/09/19 13:52:13;;;;;;;2.50;0.90;;;;;;;;;;5036501;28;20430;-76
2023/09/19 13:54:41;;;;;;;2.57;0.87;;;;;;;;;;5036097;28;20435;-76
2023/09/19 13:57:09;;;;;;;2.00;0.70;;;;;;;;;;5036162;28;20524;-76
2023/09/19 13:59:37;;;;;;;2.33;0.90;;;;;;;;;;5036014;28;20452;-75
2023/09/19 14:02:05;;;;;;;1.90;0.60;;;;;;;;;;5035766;28;20414;-75
2023/09/19 14:04:35;;;;;;;4.43;0.90;;;;;;;;;;5035819;28;20612;-75
2023/09/19 14:07:03;;;;;;;2.77;0.83;;;;;;;;;;5036217;28;20499;-76
2023/09/19 14:09:30;;;;;;;2.47;0.97;;;;;;;;;;5035957;28;20478;-76
2023/09/19 14:11:58;;;;;;;2.47;0.57;;;;;;;;;;5035922;28;20504;-75
2023/09/19 14:14:25;;;;;;;1.97;0.70;;;;;;;;;;5035705;28;20438;-76
2023/09/19 14:16:53;;;;;;;2.20;0.80;;;;;;;;;;5035896;28;20990;-75
2023/09/19 14:19:20;;;;;;;2.13;0.70;;;;;;;;;;5035795;28;20532;-75
2023/09/19 14:21:49;;;;;;;2.10;0.60;;;;;;;;;;5035542;28;20912;-75
2023/09/19 14:24:18;;;;;;;3.80;0.73;;;;;;;;;;5035849;28;20464;-75
2023/09/19 14:26:47;;;;;;;2.30;0.73;;;;;;;;;;5035470;28;20986;-75
2023/09/19 14:29:14;;;;;;;1.90;0.80;;;;;;;;;;5035568;28;20517;-76
2023/09/19 14:31:42;;;;;;;2.30;0.60;;;;;;;;;;5035166;28;20531;-75